createdAt,value
2018-12-26T00:00:23.650Z,99511.84
2018-12-26T00:02:55.864Z,99514.00
2018-12-26T00:05:28.320Z,99510.78
2018-12-26T00:08:00.666Z,99513.25
2018-12-26T00:10:32.868Z,99513.77
2018-12-26T00:13:05.180Z,99515.48
2018-12-26T00:15:37.482Z,99514.45
2018-12-26T00:18:09.795Z,99506.23
2018-12-26T00:20:42.001Z,99504.20
2018-12-26T00:23:14.314Z,99489.52
2018-12-26T00:25:46.526Z,99492.76
2018-12-26T00:28:18.736Z,99502.09
2018-12-26T00:30:51.050Z,99499.66
2018-12-26T00:33:23.263Z,99501.17
2018-12-26T00:35:55.467Z,99499.52
2018-12-26T00:38:27.815Z,99498.38
2018-12-26T00:41:00.156Z,99501.31
2018-12-26T00:43:32.411Z,99516.72
2018-12-26T00:46:04.720Z,99513.42
2018-12-26T00:48:36.936Z,99516.09
2018-12-26T00:51:09.142Z,99511.07
2018-12-26T00:53:41.361Z,99507.98
2018-12-26T00:56:13.554Z,99515.29
2018-12-26T00:58:45.772Z,99517.24
2018-12-26T01:01:17.978Z,99512.61
2018-12-26T01:03:50.305Z,99513.61
2018-12-26T01:06:22.672Z,99508.17
2018-12-26T01:08:55.033Z,99508.74
2018-12-26T01:11:27.371Z,99503.34
2018-12-26T01:13:59.628Z,99506.65
2018-12-26T01:16:31.839Z,99508.90
2018-12-26T01:19:04.270Z,99503.20
2018-12-26T01:21:36.590Z,99496.17
2018-12-26T01:24:08.894Z,99498.61
2018-12-26T01:26:41.109Z,99490.87
2018-12-26T01:29:13.318Z,99480.34
2018-12-26T01:31:45.611Z,99478.56
2018-12-26T01:34:17.814Z,99479.90
2018-12-26T01:36:50.048Z,99473.06
2018-12-26T01:39:22.355Z,99472.27
2018-12-26T01:41:54.556Z,99472.67
2018-12-26T01:44:26.811Z,99465.92
2018-12-26T01:46:59.122Z,99464.17
2018-12-26T01:49:31.335Z,99462.58
2018-12-26T01:52:03.739Z,99456.87
2018-12-26T01:54:35.956Z,99451.05
2018-12-26T01:57:08.161Z,99456.72
2018-12-26T01:59:40.368Z,99457.34
2018-12-26T02:02:12.568Z,99459.86
2018-12-26T02:04:44.774Z,99455.16
2018-12-26T02:07:17.065Z,99458.14
2018-12-26T02:09:49.329Z,99457.66
2018-12-26T02:12:21.556Z,99460.56
2018-12-26T02:14:53.840Z,99471.48
2018-12-26T02:17:26.044Z,99467.95
2018-12-26T02:19:58.662Z,99465.38
2018-12-26T02:22:30.890Z,99469.73
2018-12-26T02:25:03.207Z,99465.69
2018-12-26T02:27:35.400Z,99461.27
2018-12-26T02:30:08.366Z,99450.83
2018-12-26T02:32:40.568Z,99437.26
2018-12-26T02:35:12.881Z,99429.84
2018-12-26T02:37:45.079Z,99426.16
2018-12-26T02:40:17.421Z,99418.42
2018-12-26T02:42:49.784Z,99417.64
2018-12-26T02:45:22.030Z,99418.16
2018-12-26T02:47:54.232Z,99406.51
2018-12-26T02:50:26.444Z,99413.59
2018-12-26T02:52:58.753Z,99417.91
2018-12-26T02:55:30.963Z,99423.11
2018-12-26T02:58:03.176Z,99419.11
2018-12-26T03:00:35.385Z,99414.74
2018-12-26T03:03:07.785Z,99408.44
2018-12-26T03:05:40.093Z,99409.41
2018-12-26T03:08:12.507Z,99406.44
2018-12-26T03:10:44.820Z,99402.12
2018-12-26T03:13:17.235Z,99403.23
2018-12-26T03:15:49.538Z,99404.64
2018-12-26T03:18:21.736Z,99405.17
2018-12-26T03:20:54.044Z,99403.41
2018-12-26T03:23:26.241Z,99395.08
2018-12-26T03:25:58.751Z,99388.13
2018-12-26T03:28:30.955Z,99380.86
2018-12-26T03:31:03.277Z,99391.74
2018-12-26T03:33:35.574Z,99391.05
2018-12-26T03:36:07.979Z,99389.23
2018-12-26T03:38:40.288Z,99396.95
2018-12-26T03:41:12.608Z,99406.22
2018-12-26T03:43:45.352Z,99406.92
2018-12-26T03:46:17.723Z,99407.21
2018-12-26T03:48:50.031Z,99405.22
2018-12-26T03:51:22.546Z,99402.36
2018-12-26T03:53:54.949Z,99401.79
2018-12-26T03:56:27.257Z,99393.94
2018-12-26T03:58:59.574Z,99390.25
2018-12-26T04:01:31.981Z,99393.63
2018-12-26T04:04:04.488Z,99390.73
2018-12-26T04:06:36.893Z,99390.05
2018-12-26T04:09:10.778Z,99387.65
2018-12-26T04:11:43.078Z,99392.89
2018-12-26T04:14:15.380Z,99393.77
2018-12-26T04:16:47.890Z,99389.06
2018-12-26T04:19:20.302Z,99384.91
2018-12-26T04:21:53.105Z,99390.34
2018-12-26T04:24:25.623Z,99391.42
2018-12-26T04:26:57.825Z,99392.48
2018-12-26T04:29:30.028Z,99392.30
2018-12-26T04:32:02.237Z,99392.52
2018-12-26T04:34:34.448Z,99383.86
2018-12-26T04:37:06.770Z,99381.36
2018-12-26T04:39:38.981Z,99378.79
2018-12-26T04:42:11.190Z,99379.41
2018-12-26T04:44:43.442Z,99388.16
2018-12-26T04:47:15.644Z,99398.26
2018-12-26T04:49:47.855Z,99395.86
2018-12-26T04:52:20.055Z,99398.55
2018-12-26T04:54:52.367Z,99398.45
2018-12-26T04:57:25.242Z,99403.53
2018-12-26T04:59:57.574Z,99410.86
2018-12-26T05:02:29.989Z,99418.16
2018-12-26T05:05:02.201Z,99416.07
2018-12-26T05:07:34.422Z,99422.22
2018-12-26T05:10:07.448Z,99418.51
2018-12-26T05:12:39.861Z,99417.20
2018-12-26T05:15:12.176Z,99416.52
2018-12-26T05:17:44.387Z,99419.82
2018-12-26T05:20:16.592Z,99421.55
2018-12-26T05:22:49.095Z,99426.39
2018-12-26T05:25:21.514Z,99425.66
2018-12-26T05:27:53.709Z,99423.34
2018-12-26T05:30:26.114Z,99422.98
2018-12-26T05:32:58.414Z,99422.55
2018-12-26T05:35:30.626Z,99425.66
2018-12-26T05:38:02.837Z,99421.45
2018-12-26T05:40:35.146Z,99414.67
2018-12-26T05:43:07.467Z,99402.42
2018-12-26T05:45:39.814Z,99392.20
2018-12-26T05:48:12.033Z,99397.50
2018-12-26T05:50:44.237Z,99390.27
2018-12-26T05:53:16.448Z,99385.09
2018-12-26T05:55:48.760Z,99401.47
2018-12-26T05:58:21.103Z,99402.48
2018-12-26T06:00:53.338Z,99404.95
2018-12-26T06:03:25.552Z,99400.16
2018-12-26T06:05:57.763Z,99419.79
2018-12-26T06:08:30.044Z,99437.11
2018-12-26T06:11:02.255Z,99424.78
2018-12-26T06:13:34.466Z,99419.91
2018-12-26T06:16:06.786Z,99412.26
2018-12-26T06:18:39.013Z,99413.63
2018-12-26T06:21:11.216Z,99415.40
2018-12-26T06:23:43.425Z,99404.54
2018-12-26T06:26:15.744Z,99409.84
2018-12-26T06:28:48.435Z,99414.92
2018-12-26T06:31:20.646Z,99413.63
2018-12-26T06:33:52.856Z,99414.73
2018-12-26T06:36:25.061Z,99419.06
2018-12-26T06:38:57.281Z,99429.41
2018-12-26T06:41:29.617Z,99426.17
2018-12-26T06:44:01.855Z,99430.33
2018-12-26T06:46:34.238Z,99432.16
2018-12-26T06:49:06.704Z,99429.30
2018-12-26T06:51:38.946Z,99427.92
2018-12-26T06:54:11.389Z,99425.78
2018-12-26T06:56:43.820Z,99426.20
2018-12-26T06:59:16.220Z,99426.84
2018-12-26T07:01:48.581Z,99423.16
2018-12-26T07:04:20.956Z,99424.53
2018-12-26T07:06:53.261Z,99408.48
2018-12-26T07:09:25.695Z,99414.70
2018-12-26T07:11:58.091Z,99421.36
2018-12-26T07:14:30.469Z,99423.78
2018-12-26T07:17:02.841Z,99417.27
2018-12-26T07:19:35.202Z,99405.81
2018-12-26T07:22:07.570Z,99412.55
2018-12-26T07:24:39.954Z,99414.59
2018-12-26T07:27:12.325Z,99417.80
2018-12-26T07:29:44.681Z,99413.52
2018-12-26T07:32:17.038Z,99413.23
2018-12-26T07:34:49.412Z,99412.72
2018-12-26T07:37:21.777Z,99415.42
2018-12-26T07:39:54.140Z,99419.48
2018-12-26T07:42:26.515Z,99421.16
2018-12-26T07:44:58.991Z,99424.66
2018-12-26T07:47:31.269Z,99423.39
2018-12-26T07:50:03.620Z,99419.77
2018-12-26T07:52:35.985Z,99422.23
2018-12-26T07:55:08.549Z,99421.37
2018-12-26T07:57:40.914Z,99433.36
2018-12-26T08:00:13.461Z,99443.29
2018-12-26T08:02:45.918Z,99447.50
2018-12-26T08:05:18.151Z,99451.03
2018-12-26T08:07:50.356Z,99456.89
2018-12-26T08:10:22.573Z,99458.18
2018-12-26T08:12:54.912Z,99459.77
2018-12-26T08:15:27.506Z,99459.80
2018-12-26T08:17:59.824Z,99456.70
2018-12-26T08:20:32.159Z,99460.23
2018-12-26T08:23:04.397Z,99461.33
2018-12-26T08:25:36.741Z,99465.00
2018-12-26T08:28:09.106Z,99461.63
2018-12-26T08:30:41.469Z,99455.30
2018-12-26T08:33:13.840Z,99447.97
2018-12-26T08:35:46.199Z,99436.98
2018-12-26T08:38:18.556Z,99435.98
2018-12-26T08:40:51.073Z,99439.95
2018-12-26T08:43:23.571Z,99439.77
2018-12-26T08:45:55.944Z,99441.56
2018-12-26T08:48:28.275Z,99444.46
2018-12-26T08:51:00.581Z,99448.48
2018-12-26T08:53:32.784Z,99440.65
2018-12-26T08:56:04.994Z,99441.55
2018-12-26T08:58:37.194Z,99445.02
2018-12-26T09:01:09.497Z,99444.46
2018-12-26T09:03:41.899Z,99452.17
2018-12-26T09:06:14.205Z,99451.58
2018-12-26T09:08:46.411Z,99454.13
2018-12-26T09:11:18.615Z,99468.42
2018-12-26T09:13:50.823Z,99477.38
2018-12-26T09:16:23.031Z,99477.31
2018-12-26T09:18:55.239Z,99478.21
2018-12-26T09:21:27.574Z,99485.96
2018-12-26T09:23:59.909Z,99482.77
2018-12-26T09:26:35.270Z,99484.06
2018-12-26T09:29:07.580Z,99482.48
2018-12-26T09:31:39.926Z,99479.28
2018-12-26T09:34:12.290Z,99474.64
2018-12-26T09:36:44.663Z,99468.83
2018-12-26T09:39:17.013Z,99460.64
2018-12-26T09:41:49.389Z,99465.79
2018-12-26T09:44:21.797Z,99464.00
2018-12-26T09:46:54.158Z,99461.30
2018-12-26T09:49:26.390Z,99458.83
2018-12-26T09:51:58.599Z,99463.19
2018-12-26T09:54:30.903Z,99463.32
2018-12-26T09:57:03.124Z,99461.56
2018-12-26T09:59:35.435Z,99464.84
2018-12-26T10:02:07.814Z,99462.23
2018-12-26T10:04:40.189Z,99466.20
2018-12-26T10:07:12.403Z,99468.16
2018-12-26T10:09:44.746Z,99471.78
2018-12-26T10:12:16.982Z,99466.70
2018-12-26T10:14:49.351Z,99465.48
2018-12-26T10:17:21.578Z,99459.34
2018-12-26T10:19:53.781Z,99457.55
2018-12-26T10:22:25.991Z,99455.02
2018-12-26T10:24:58.200Z,99455.89
2018-12-26T10:27:30.475Z,99453.05
2018-12-26T10:30:02.678Z,99448.45
2018-12-26T10:32:34.872Z,99443.72
2018-12-26T10:35:08.001Z,99439.89
2018-12-26T10:37:41.139Z,99436.25
2018-12-26T10:40:13.473Z,99430.84
2018-12-26T10:42:46.060Z,99425.80
2018-12-26T10:45:18.313Z,99420.52
2018-12-26T10:47:50.524Z,99418.94
2018-12-26T10:50:22.679Z,99415.02
2018-12-26T10:52:54.895Z,99404.09
2018-12-26T10:55:27.044Z,99387.61
2018-12-26T10:57:59.543Z,99381.91
2018-12-26T11:00:31.799Z,99380.20
2018-12-26T11:03:04.109Z,99371.47
2018-12-26T11:05:36.397Z,99372.64
2018-12-26T11:08:08.641Z,99376.63
2018-12-26T11:10:40.903Z,99375.83
2018-12-26T11:13:13.128Z,99378.20
2018-12-26T11:15:45.289Z,99376.41
2018-12-26T11:18:18.414Z,99374.47
2018-12-26T11:20:50.859Z,99370.41
2018-12-26T11:23:23.169Z,99368.19
2018-12-26T11:25:55.329Z,99363.84
2018-12-26T11:28:27.533Z,99359.55
2018-12-26T11:30:59.691Z,99360.00
2018-12-26T11:33:32.099Z,99352.66
2018-12-26T11:36:04.848Z,99347.52
2018-12-26T11:38:38.247Z,99346.27
2018-12-26T11:41:10.746Z,99342.91
2018-12-26T11:43:43.058Z,99336.14
2018-12-26T11:46:15.432Z,99327.52
2018-12-26T11:48:47.701Z,99327.58
2018-12-26T11:51:19.862Z,99327.48
2018-12-26T11:53:52.144Z,99332.17
2018-12-26T11:56:24.400Z,99332.30
2018-12-26T11:58:56.704Z,99338.70
2018-12-26T12:01:29.161Z,99338.98
2018-12-26T12:04:01.461Z,99330.34
2018-12-26T12:06:33.919Z,99330.89
2018-12-26T12:09:07.971Z,99335.21
2018-12-26T12:11:40.443Z,99328.42
2018-12-26T12:14:12.846Z,99320.66
2018-12-26T12:16:45.200Z,99309.63
2018-12-26T12:19:17.707Z,99307.63
2018-12-26T12:21:50.077Z,99302.70
2018-12-26T12:24:22.516Z,99286.65
2018-12-26T12:26:54.832Z,99279.19
2018-12-26T12:29:35.799Z,99284.20
2018-12-26T12:32:01.432Z,99275.51
2018-12-26T12:34:33.997Z,99269.52
2018-12-26T12:37:06.518Z,99262.83
2018-12-26T12:39:39.087Z,99274.16
2018-12-26T12:42:11.753Z,99263.36
2018-12-26T12:44:44.322Z,99267.48
2018-12-26T12:47:16.946Z,99261.59
2018-12-26T12:49:49.704Z,99269.08
2018-12-26T12:52:22.027Z,99267.69
2018-12-26T12:54:54.687Z,99268.09
2018-12-26T12:57:27.297Z,99260.16
2018-12-26T12:59:59.872Z,99252.39
2018-12-26T13:02:32.394Z,99249.62
2018-12-26T13:05:05.155Z,99243.69
2018-12-26T13:07:37.481Z,99247.01
2018-12-26T13:10:10.146Z,99256.30
2018-12-26T13:12:42.470Z,99259.97
2018-12-26T13:15:14.844Z,99260.99
2018-12-26T13:17:47.160Z,99269.76
2018-12-26T13:20:19.518Z,99276.95
2018-12-26T13:22:51.705Z,99283.59
2018-12-26T13:25:23.912Z,99285.11
2018-12-26T13:27:56.063Z,99295.21
2018-12-26T13:30:28.258Z,99301.22
2018-12-26T13:33:00.499Z,99302.16
2018-12-26T13:35:32.968Z,99301.94
2018-12-26T13:38:05.250Z,99305.98
2018-12-26T13:40:37.457Z,99313.28
2018-12-26T13:43:09.617Z,99314.32
2018-12-26T13:45:41.804Z,99310.14
2018-12-26T13:48:13.956Z,99304.12
2018-12-26T13:50:46.261Z,99306.15
2018-12-26T13:53:18.411Z,99301.89
2018-12-26T13:55:50.609Z,99309.26
2018-12-26T13:58:22.755Z,99313.89
2018-12-26T14:00:54.972Z,99317.06
2018-12-26T14:03:27.132Z,99316.36
2018-12-26T14:05:59.437Z,99307.45
2018-12-26T14:08:31.598Z,99306.16
2018-12-26T14:11:03.802Z,99309.47
2018-12-26T14:13:36.053Z,99310.16
2018-12-26T14:16:08.252Z,99310.50
2018-12-26T14:18:40.501Z,99311.25
2018-12-26T14:21:12.703Z,99313.66
2018-12-26T14:23:44.851Z,99314.25
2018-12-26T14:26:17.155Z,99315.56
2018-12-26T14:28:49.306Z,99315.69
2018-12-26T14:31:21.509Z,99321.23
2018-12-26T14:33:53.659Z,99323.89
2018-12-26T14:36:25.863Z,99322.66
2018-12-26T14:38:58.055Z,99330.27
2018-12-26T14:41:30.284Z,99330.09
2018-12-26T14:44:07.602Z,99335.72
2018-12-26T14:46:40.418Z,99338.11
2018-12-26T14:49:12.943Z,99338.39
2018-12-26T14:51:45.352Z,99337.45
2018-12-26T14:54:17.704Z,99337.13
2018-12-26T14:56:49.897Z,99337.85
2018-12-26T14:59:22.054Z,99338.91
2018-12-26T15:01:54.361Z,99340.20
2018-12-26T15:04:26.661Z,99341.41
2018-12-26T15:06:58.859Z,99339.06
2018-12-26T15:09:31.065Z,99339.23
2018-12-26T15:12:03.274Z,99336.90
2018-12-26T15:14:35.481Z,99338.96
2018-12-26T15:17:08.143Z,99334.34
2018-12-26T15:19:40.464Z,99338.12
2018-12-26T15:22:13.260Z,99339.59
2018-12-26T15:24:45.730Z,99342.79
2018-12-26T15:27:19.761Z,99349.01
2018-12-26T15:29:52.653Z,99349.27
2018-12-26T15:32:25.526Z,99345.66
2018-12-26T15:34:58.318Z,99345.76
2018-12-26T15:37:31.717Z,99349.44
2018-12-26T15:40:05.308Z,99350.08
2018-12-26T15:42:37.867Z,99351.67
2018-12-26T15:45:10.374Z,99351.51
2018-12-26T15:47:42.681Z,99351.41
2018-12-26T15:50:14.975Z,99357.31
2018-12-26T15:52:47.283Z,99359.41
2018-12-26T15:55:19.587Z,99353.55
2018-12-26T15:57:51.896Z,99363.64
2018-12-26T16:00:24.096Z,99363.77
2018-12-26T16:02:56.406Z,99360.48
2018-12-26T16:05:28.605Z,99359.90
2018-12-26T16:08:00.807Z,99358.24
2018-12-26T16:10:33.011Z,99363.66
2018-12-26T16:13:05.317Z,99356.70
2018-12-26T16:15:37.520Z,99359.82
2018-12-26T16:18:09.721Z,99360.78
2018-12-26T16:20:42.022Z,99357.66
2018-12-26T16:23:14.344Z,99363.63
2018-12-26T16:25:46.545Z,99363.31
2018-12-26T16:28:18.756Z,99370.31
2018-12-26T16:30:56.872Z,99368.23
2018-12-26T16:33:33.339Z,99362.59
2018-12-26T16:36:05.995Z,99366.01
2018-12-26T16:38:38.210Z,99368.37
2018-12-26T16:41:10.419Z,99362.88
2018-12-26T16:43:42.635Z,99364.72
2018-12-26T16:46:14.947Z,99364.98
2018-12-26T16:48:47.261Z,99361.44
2018-12-26T16:51:19.568Z,99369.08
2018-12-26T16:53:51.782Z,99367.56
2018-12-26T16:56:23.993Z,99365.86
2018-12-26T16:58:56.409Z,99369.30
2018-12-26T17:01:28.620Z,99372.27
2018-12-26T17:04:00.937Z,99369.77
2018-12-26T17:06:33.143Z,99368.27
2018-12-26T17:09:07.184Z,99365.05
2018-12-26T17:11:39.390Z,99361.53
2018-12-26T17:14:11.791Z,99363.89
2018-12-26T17:16:43.998Z,99363.94
2018-12-26T17:19:16.305Z,99370.20
2018-12-26T17:21:48.522Z,99372.70
2018-12-26T17:24:20.724Z,99373.49
2018-12-26T17:26:52.928Z,99373.16
2018-12-26T17:29:25.237Z,99373.36
2018-12-26T17:31:57.552Z,99370.94
2018-12-26T17:34:29.856Z,99373.98
2018-12-26T17:37:02.213Z,99378.49
2018-12-26T17:39:34.420Z,99371.97
2018-12-26T17:42:06.929Z,99371.60
2018-12-26T17:44:39.213Z,99368.78
2018-12-26T17:47:11.521Z,99372.65
2018-12-26T17:49:43.730Z,99380.48
2018-12-26T17:52:16.463Z,99369.18
2018-12-26T17:55:21.184Z,99370.50
2018-12-26T17:57:59.126Z,99376.97
2018-12-26T18:01:12.821Z,99381.86
2018-12-26T18:03:41.250Z,99370.91
2018-12-26T18:06:13.464Z,99370.51
2018-12-26T18:08:45.622Z,99375.51
2018-12-26T18:11:17.836Z,99370.25
2018-12-26T18:13:50.142Z,99378.50
2018-12-26T18:16:22.351Z,99368.55
2018-12-26T18:18:54.658Z,99374.73
2018-12-26T18:21:26.954Z,99369.98
2018-12-26T18:23:59.389Z,99368.36
2018-12-26T18:26:32.865Z,99365.73
2018-12-26T18:29:05.372Z,99366.62
2018-12-26T18:31:37.813Z,99368.02
2018-12-26T18:34:10.282Z,99363.94
2018-12-26T18:36:43.227Z,99365.22
2018-12-26T18:39:15.591Z,99364.47
2018-12-26T18:41:48.021Z,99360.82
2018-12-26T18:44:21.411Z,99361.62
2018-12-26T18:46:53.777Z,99360.88
2018-12-26T18:49:26.010Z,99358.33
2018-12-26T18:51:58.223Z,99360.08
2018-12-26T18:54:30.561Z,99361.11
2018-12-26T18:57:02.794Z,99362.38
2018-12-26T18:59:35.013Z,99359.53
2018-12-26T19:02:07.326Z,99360.25
2018-12-26T19:04:39.529Z,99354.69
2018-12-26T19:07:11.752Z,99352.03
2018-12-26T19:09:43.959Z,99352.05
2018-12-26T19:12:16.170Z,99350.39
2018-12-26T19:14:48.377Z,99348.41
2018-12-26T19:17:20.608Z,99348.49
2018-12-26T19:19:52.812Z,99348.02
2018-12-26T19:22:25.026Z,99343.95
2018-12-26T19:24:57.197Z,99347.09
2018-12-26T19:27:29.505Z,99349.52
2018-12-26T19:30:01.813Z,99351.82
2018-12-26T19:32:34.029Z,99348.95
2018-12-26T19:35:06.430Z,99346.89
2018-12-26T19:37:38.691Z,99347.69
2018-12-26T19:40:11.144Z,99340.31
2018-12-26T19:42:43.416Z,99339.10
2018-12-26T19:45:16.341Z,99338.63
2018-12-26T19:47:48.542Z,99334.28
2018-12-26T19:50:20.851Z,99331.90
2018-12-26T19:52:53.387Z,99331.81
2018-12-26T19:55:25.601Z,99326.66
2018-12-26T19:57:57.910Z,99327.44
2018-12-26T20:00:30.222Z,99332.14
2018-12-26T20:03:02.680Z,99332.21
2018-12-26T20:05:35.467Z,99336.09
2018-12-26T20:08:16.847Z,99327.50
2018-12-26T20:10:51.452Z,99325.85
2018-12-26T20:13:23.918Z,99330.86
2018-12-26T20:15:56.242Z,99332.42
2018-12-26T20:18:28.612Z,99333.55
2018-12-26T20:21:01.033Z,99333.38
2018-12-26T20:23:33.403Z,99331.32
2018-12-26T20:26:05.727Z,99330.84
2018-12-26T20:28:38.188Z,99329.79
2018-12-26T20:31:10.602Z,99332.02
2018-12-26T20:33:42.839Z,99326.33
2018-12-26T20:36:15.242Z,99324.02
2018-12-26T20:38:47.587Z,99332.09
2018-12-26T20:41:22.774Z,99325.65
2018-12-26T20:43:55.202Z,99319.32
2018-12-26T20:46:27.362Z,99317.19
2018-12-26T20:48:59.797Z,99314.51
2018-12-26T20:51:32.214Z,99316.67
2018-12-26T20:54:04.583Z,99314.97
2018-12-26T20:56:36.994Z,99319.17
2018-12-26T20:59:09.358Z,99312.33
2018-12-26T21:01:41.667Z,99313.88
2018-12-26T21:04:14.040Z,99311.32
2018-12-26T21:06:46.459Z,99317.43
2018-12-26T21:09:19.025Z,99320.12
2018-12-26T21:11:51.347Z,99316.20
2018-12-26T21:14:23.712Z,99314.43
2018-12-26T21:16:56.035Z,99316.82
2018-12-26T21:19:28.394Z,99315.11
2018-12-26T21:22:00.819Z,99318.98
2018-12-26T21:24:33.181Z,99313.34
2018-12-26T21:27:05.598Z,99310.59
2018-12-26T21:29:37.968Z,99309.95
2018-12-26T21:32:14.286Z,99312.56
2018-12-26T21:34:44.265Z,99313.27
2018-12-26T21:37:16.582Z,99311.82
2018-12-26T21:39:49.888Z,99310.72
2018-12-26T21:42:22.597Z,99316.88
2018-12-26T21:44:54.997Z,99318.62
2018-12-26T21:47:27.319Z,99317.04
2018-12-26T21:49:59.567Z,99312.12
2018-12-26T21:52:31.865Z,99302.64
2018-12-26T21:55:04.335Z,99308.09
2018-12-26T21:57:36.655Z,99309.16
2018-12-26T22:00:10.291Z,99301.58
2018-12-26T22:02:42.613Z,99305.27
2018-12-26T22:05:14.981Z,99304.80
2018-12-26T22:07:47.306Z,99301.78
2018-12-26T22:10:19.667Z,99304.33
2018-12-26T22:12:51.997Z,99301.67
2018-12-26T22:15:24.364Z,99302.82
2018-12-26T22:17:56.684Z,99307.56
2018-12-26T22:20:29.148Z,99308.66
2018-12-26T22:23:01.578Z,99305.59
2018-12-26T22:25:33.948Z,99299.89
2018-12-26T22:28:06.276Z,99298.09
2018-12-26T22:30:38.645Z,99295.59
2018-12-26T22:33:10.838Z,99301.69
2018-12-26T22:35:43.098Z,99300.81
2018-12-26T22:38:15.487Z,99300.63
2018-12-26T22:40:47.763Z,99303.97
2018-12-26T22:43:20.037Z,99302.42
2018-12-26T22:45:52.384Z,99304.12
2018-12-26T22:48:24.702Z,99296.69
2018-12-26T22:50:57.076Z,99290.91
2018-12-26T22:53:29.497Z,99286.76
2018-12-26T22:56:01.865Z,99284.45
2018-12-26T22:58:34.192Z,99282.69
2018-12-26T23:01:07.062Z,99287.88
2018-12-26T23:03:39.381Z,99288.77
2018-12-26T23:06:12.664Z,99292.41
2018-12-26T23:08:44.987Z,99291.53
2018-12-26T23:11:17.330Z,99290.05
2018-12-26T23:13:49.628Z,99281.84
2018-12-26T23:16:21.960Z,99285.47
2018-12-26T23:18:54.248Z,99282.74
2018-12-26T23:21:26.712Z,99285.84
2018-12-26T23:23:59.028Z,99280.26
2018-12-26T23:26:31.501Z,99280.16
2018-12-26T23:29:03.826Z,99281.12
2018-12-26T23:31:36.074Z,99276.22
2018-12-26T23:34:08.370Z,99277.86
2018-12-26T23:36:40.828Z,99275.92
2018-12-26T23:39:13.189Z,99276.25
2018-12-26T23:41:45.584Z,99271.91
2018-12-26T23:44:17.981Z,99267.33
2018-12-26T23:46:50.351Z,99262.70
2018-12-26T23:49:22.671Z,99258.02
2018-12-26T23:51:55.121Z,99258.81
2018-12-26T23:54:27.545Z,99263.00
2018-12-26T23:56:59.919Z,99258.55
2018-12-26T23:59:32.225Z,99256.50
